sensor_id;sensor_type;location;lat;lon;timestamp;temperature;humidity
9987;DHT22;5033;46.310;11.214;2023-05-10T00:02:03;14.60;99.90
9987;DHT22;5033;46.310;11.214;2023-05-10T00:04:30;14.60;99.90
9987;DHT22;5033;46.310;11.214;2023-05-10T00:06:57;14.50;99.90
9987;DHT22;5033;46.310;11.214;2023-05-10T00:09:24;14.50;99.90
9987;DHT22;5033;46.310;11.214;2023-05-10T00:11:51;14.40;99.90
9987;DHT22;5033;46.310;11.214;2023-05-10T00:14:19;14.40;99.90
9987;DHT22;5033;46.310;11.214;2023-05-10T00:16:45;14.40;99.90
9987;DHT22;5033;46.310;11.214;2023-05-10T00:19:14;14.40;99.90
9987;DHT22;5033;46.310;11.214;2023-05-10T00:21:41;14.40;99.90
9987;DHT22;5033;46.310;11.214;2023-05-10T00:24:08;14.30;99.90
9987;DHT22;5033;46.310;11.214;2023-05-10T00:26:34;14.30;99.90
9987;DHT22;5033;46.310;11.214;2023-05-10T00:29:01;14.20;99.90
9987;DHT22;5033;46.310;11.214;2023-05-10T00:31:28;14.10;99.90
9987;DHT22;5033;46.310;11.214;2023-05-10T00:33:55;13.90;99.90
9987;DHT22;5033;46.310;11.214;2023-05-10T00:36:24;13.70;99.90
9987;DHT22;5033;46.310;11.214;2023-05-10T00:38:51;13.70;99.90
9987;DHT22;5033;46.310;11.214;2023-05-10T00:41:18;13.60;99.90
9987;DHT22;5033;46.310;11.214;2023-05-10T00:43:46;13.60;99.90
9987;DHT22;5033;46.310;11.214;2023-05-10T00:46:14;13.60;99.90
9987;DHT22;5033;46.310;11.214;2023-05-10T00:48:42;13.60;99.90
9987;DHT22;5033;46.310;11.214;2023-05-10T00:51:10;13.60;99.90
9987;DHT22;5033;46.310;11.214;2023-05-10T00:53:38;13.50;99.90
9987;DHT22;5033;46.310;11.214;2023-05-10T00:56:05;13.50;99.90
9987;DHT22;5033;46.310;11.214;2023-05-10T00:58:32;13.40;99.90
9987;DHT22;5033;46.310;11.214;2023-05-10T01:00:59;13.40;99.90
9987;DHT22;5033;46.310;11.214;2023-05-10T01:03:27;13.40;99.90
9987;DHT22;5033;46.310;11.214;2023-05-10T01:05:55;13.40;99.90
9987;DHT22;5033;46.310;11.214;2023-05-10T01:08:22;13.50;99.90
9987;DHT22;5033;46.310;11.214;2023-05-10T01:10:51;13.50;99.90
9987;DHT22;5033;46.310;11.214;2023-05-10T01:13:27;13.50;99.90
9987;DHT22;5033;46.310;11.214;2023-05-10T01:15:56;13.50;99.90
9987;DHT22;5033;46.310;11.214;2023-05-10T01:18:24;13.60;99.90
9987;DHT22;5033;46.310;11.214;2023-05-10T01:20:59;13.60;99.90
9987;DHT22;5033;46.310;11.214;2023-05-10T01:23:52;13.60;99.90
9987;DHT22;5033;46.310;11.214;2023-05-10T01:26:45;13.60;99.90
9987;DHT22;5033;46.310;11.214;2023-05-10T01:29:46;13.70;99.90
9987;DHT22;5033;46.310;11.214;2023-05-10T01:32:21;13.70;99.90
9987;DHT22;5033;46.310;11.214;2023-05-10T01:34:56;13.60;99.90
9987;DHT22;5033;46.310;11.214;2023-05-10T01:37:39;13.60;99.90
9987;DHT22;5033;46.310;11.214;2023-05-10T01:40:13;13.60;99.90
9987;DHT22;5033;46.310;11.214;2023-05-10T01:42:49;13.60;99.90
9987;DHT22;5033;46.310;11.214;2023-05-10T01:45:22;13.60;99.90
9987;DHT22;5033;46.310;11.214;2023-05-10T01:47:58;13.60;99.90
9987;DHT22;5033;46.310;11.214;2023-05-10T01:50:30;13.60;99.90
9987;DHT22;5033;46.310;11.214;2023-05-10T01:52:59;13.60;99.90
9987;DHT22;5033;46.310;11.214;2023-05-10T01:55:29;13.50;99.90
9987;DHT22;5033;46.310;11.214;2023-05-10T01:58:02;13.40;99.90
9987;DHT22;5033;46.310;11.214;2023-05-10T02:00:29;13.50;99.90
9987;DHT22;5033;46.310;11.214;2023-05-10T02:03:01;13.50;99.90
9987;DHT22;5033;46.310;11.214;2023-05-10T02:05:32;13.40;99.90
9987;DHT22;5033;46.310;11.214;2023-05-10T02:08:01;13.50;99.90
9987;DHT22;5033;46.310;11.214;2023-05-10T02:10:30;13.50;99.90
9987;DHT22;5033;46.310;11.214;2023-05-10T02:12:59;13.50;99.90
9987;DHT22;5033;46.310;11.214;2023-05-10T02:15:27;13.50;99.90
9987;DHT22;5033;46.310;11.214;2023-05-10T02:17:56;13.50;99.90
9987;DHT22;5033;46.310;11.214;2023-05-10T02:20:26;13.50;99.90
9987;DHT22;5033;46.310;11.214;2023-05-10T02:22:55;13.50;99.90
9987;DHT22;5033;46.310;11.214;2023-05-10T02:25:23;13.40;99.90
9987;DHT22;5033;46.310;11.214;2023-05-10T02:27:52;13.30;99.90
9987;DHT22;5033;46.310;11.214;2023-05-10T02:30:22;13.30;99.90
9987;DHT22;5033;46.310;11.214;2023-05-10T02:32:49;13.30;99.90
9987;DHT22;5033;46.310;11.214;2023-05-10T02:35:17;13.30;99.90
9987;DHT22;5033;46.310;11.214;2023-05-10T02:37:46;13.30;99.90
9987;DHT22;5033;46.310;11.214;2023-05-10T02:40:14;13.30;99.90
9987;DHT22;5033;46.310;11.214;2023-05-10T02:42:42;13.30;99.90
9987;DHT22;5033;46.310;11.214;2023-05-10T02:45:14;13.30;99.90
9987;DHT22;5033;46.310;11.214;2023-05-10T02:47:42;13.30;99.90
9987;DHT22;5033;46.310;11.214;2023-05-10T02:50:09;13.30;99.90
9987;DHT22;5033;46.310;11.214;2023-05-10T02:52:43;13.30;99.90
9987;DHT22;5033;46.310;11.214;2023-05-10T02:55:15;13.30;99.90
9987;DHT22;5033;46.310;11.214;2023-05-10T02:57:48;13.30;99.90
9987;DHT22;5033;46.310;11.214;2023-05-10T03:00:15;13.20;99.90
9987;DHT22;5033;46.310;11.214;2023-05-10T03:02:42;13.20;99.90
9987;DHT22;5033;46.310;11.214;2023-05-10T03:05:09;13.20;99.90
9987;DHT22;5033;46.310;11.214;2023-05-10T03:07:36;13.10;99.90
9987;DHT22;5033;46.310;11.214;2023-05-10T03:10:04;13.00;99.90
9987;DHT22;5033;46.310;11.214;2023-05-10T03:12:41;12.90;99.90
9987;DHT22;5033;46.310;11.214;2023-05-10T03:15:17;12.90;99.90
9987;DHT22;5033;46.310;11.214;2023-05-10T03:17:49;12.90;99.90
9987;DHT22;5033;46.310;11.214;2023-05-10T03:20:24;12.90;99.90
9987;DHT22;5033;46.310;11.214;2023-05-10T03:22:57;12.90;99.90
9987;DHT22;5033;46.310;11.214;2023-05-10T03:25:25;12.90;99.90
9987;DHT22;5033;46.310;11.214;2023-05-10T03:27:54;12.90;99.90
9987;DHT22;5033;46.310;11.214;2023-05-10T03:30:24;12.90;99.90
9987;DHT22;5033;46.310;11.214;2023-05-10T03:32:51;12.90;99.90
9987;DHT22;5033;46.310;11.214;2023-05-10T03:35:18;12.90;99.90
9987;DHT22;5033;46.310;11.214;2023-05-10T03:37:45;12.90;99.90
9987;DHT22;5033;46.310;11.214;2023-05-10T03:40:12;12.90;99.90
9987;DHT22;5033;46.310;11.214;2023-05-10T03:42:39;12.80;99.90
9987;DHT22;5033;46.310;11.214;2023-05-10T03:45:09;12.70;99.90
9987;DHT22;5033;46.310;11.214;2023-05-10T03:47:36;12.70;99.90
9987;DHT22;5033;46.310;11.214;2023-05-10T03:50:03;12.70;99.90
9987;DHT22;5033;46.310;11.214;2023-05-10T03:52:30;12.60;99.90
9987;DHT22;5033;46.310;11.214;2023-05-10T03:54:57;12.60;99.90
9987;DHT22;5033;46.310;11.214;2023-05-10T03:57:24;12.60;99.90
9987;DHT22;5033;46.310;11.214;2023-05-10T03:59:51;12.60;99.90
9987;DHT22;5033;46.310;11.214;2023-05-10T04:02:19;12.70;99.90
9987;DHT22;5033;46.310;11.214;2023-05-10T04:04:46;12.60;99.90
9987;DHT22;5033;46.310;11.214;2023-05-10T04:07:14;12.50;99.90
9987;DHT22;5033;46.310;11.214;2023-05-10T04:09:40;12.60;99.90
9987;DHT22;5033;46.310;11.214;2023-05-10T04:12:07;12.60;99.90
9987;DHT22;5033;46.310;11.214;2023-05-10T04:14:34;12.60;99.90
9987;DHT22;5033;46.310;11.214;2023-05-10T04:17:01;12.60;99.90
9987;DHT22;5033;46.310;11.214;2023-05-10T04:19:30;12.60;99.90
9987;DHT22;5033;46.310;11.214;2023-05-10T04:21:58;12.60;99.90
9987;DHT22;5033;46.310;11.214;2023-05-10T04:24:25;12.60;99.90
9987;DHT22;5033;46.310;11.214;2023-05-10T04:26:53;12.60;99.90
9987;DHT22;5033;46.310;11.214;2023-05-10T04:29:20;12.60;99.90
9987;DHT22;5033;46.310;11.214;2023-05-10T04:31:47;12.60;99.90
9987;DHT22;5033;46.310;11.214;2023-05-10T04:34:14;12.60;99.90
9987;DHT22;5033;46.310;11.214;2023-05-10T04:36:42;12.60;99.90
9987;DHT22;5033;46.310;11.214;2023-05-10T04:39:09;12.60;99.90
9987;DHT22;5033;46.310;11.214;2023-05-10T04:41:37;12.60;99.90
9987;DHT22;5033;46.310;11.214;2023-05-10T04:44:04;12.60;99.90
9987;DHT22;5033;46.310;11.214;2023-05-10T04:46:31;12.60;99.90
9987;DHT22;5033;46.310;11.214;2023-05-10T04:48:58;12.50;99.90
9987;DHT22;5033;46.310;11.214;2023-05-10T04:51:25;12.50;99.90
9987;DHT22;5033;46.310;11.214;2023-05-10T04:53:53;12.40;99.90
9987;DHT22;5033;46.310;11.214;2023-05-10T04:56:20;12.40;99.90
9987;DHT22;5033;46.310;11.214;2023-05-10T04:58:48;12.30;99.90
9987;DHT22;5033;46.310;11.214;2023-05-10T05:01:15;12.30;99.90
9987;DHT22;5033;46.310;11.214;2023-05-10T05:03:42;12.30;99.90
9987;DHT22;5033;46.310;11.214;2023-05-10T05:06:09;12.20;99.90
9987;DHT22;5033;46.310;11.214;2023-05-10T05:08:35;12.30;99.90
9987;DHT22;5033;46.310;11.214;2023-05-10T05:11:04;12.30;99.90
9987;DHT22;5033;46.310;11.214;2023-05-10T05:13:31;12.30;99.90
9987;DHT22;5033;46.310;11.214;2023-05-10T05:16:00;12.20;99.90
9987;DHT22;5033;46.310;11.214;2023-05-10T05:18:27;12.20;99.90
9987;DHT22;5033;46.310;11.214;2023-05-10T05:20:54;12.30;99.90
9987;DHT22;5033;46.310;11.214;2023-05-10T05:23:21;12.20;99.90
9987;DHT22;5033;46.310;11.214;2023-05-10T05:25:51;12.20;99.90
9987;DHT22;5033;46.310;11.214;2023-05-10T05:28:19;12.30;99.90
9987;DHT22;5033;46.310;11.214;2023-05-10T05:30:46;12.30;99.90
9987;DHT22;5033;46.310;11.214;2023-05-10T05:33:13;12.30;99.90
9987;DHT22;5033;46.310;11.214;2023-05-10T05:35:41;12.30;99.90
9987;DHT22;5033;46.310;11.214;2023-05-10T05:38:13;12.30;99.90
9987;DHT22;5033;46.310;11.214;2023-05-10T05:40:39;12.40;99.90
9987;DHT22;5033;46.310;11.214;2023-05-10T05:43:06;12.40;99.90
9987;DHT22;5033;46.310;11.214;2023-05-10T05:45:35;12.50;99.90
9987;DHT22;5033;46.310;11.214;2023-05-10T05:48:02;12.50;99.90
9987;DHT22;5033;46.310;11.214;2023-05-10T05:50:29;12.50;99.90
9987;DHT22;5033;46.310;11.214;2023-05-10T05:52:56;12.50;99.90
9987;DHT22;5033;46.310;11.214;2023-05-10T05:55:23;12.50;99.90
9987;DHT22;5033;46.310;11.214;2023-05-10T05:57:51;12.70;99.90
9987;DHT22;5033;46.310;11.214;2023-05-10T06:00:18;12.70;99.90
9987;DHT22;5033;46.310;11.214;2023-05-10T06:02:46;12.70;99.90
9987;DHT22;5033;46.310;11.214;2023-05-10T06:05:13;12.60;99.90
9987;DHT22;5033;46.310;11.214;2023-05-10T06:07:40;12.50;99.90
9987;DHT22;5033;46.310;11.214;2023-05-10T06:10:08;12.50;99.90
9987;DHT22;5033;46.310;11.214;2023-05-10T06:12:35;12.40;99.90
9987;DHT22;5033;46.310;11.214;2023-05-10T06:15:03;12.40;99.90
9987;DHT22;5033;46.310;11.214;2023-05-10T06:17:30;12.40;99.90
9987;DHT22;5033;46.310;11.214;2023-05-10T06:19:58;12.40;99.90
9987;DHT22;5033;46.310;11.214;2023-05-10T06:22:25;12.50;99.90
9987;DHT22;5033;46.310;11.214;2023-05-10T06:24:52;12.50;99.90
9987;DHT22;5033;46.310;11.214;2023-05-10T06:27:19;12.50;99.90
9987;DHT22;5033;46.310;11.214;2023-05-10T06:29:47;12.40;99.90
9987;DHT22;5033;46.310;11.214;2023-05-10T06:32:14;12.40;99.90
9987;DHT22;5033;46.310;11.214;2023-05-10T06:34:41;12.40;99.90
9987;DHT22;5033;46.310;11.214;2023-05-10T06:37:10;12.40;99.90
9987;DHT22;5033;46.310;11.214;2023-05-10T06:39:37;12.40;99.90
9987;DHT22;5033;46.310;11.214;2023-05-10T06:42:04;12.30;99.90
9987;DHT22;5033;46.310;11.214;2023-05-10T06:44:31;12.30;99.90
9987;DHT22;5033;46.310;11.214;2023-05-10T06:46:58;12.30;99.90
9987;DHT22;5033;46.310;11.214;2023-05-10T06:49:25;12.30;99.90
9987;DHT22;5033;46.310;11.214;2023-05-10T06:51:52;12.40;99.90
9987;DHT22;5033;46.310;11.214;2023-05-10T06:54:20;12.40;99.90
9987;DHT22;5033;46.310;11.214;2023-05-10T06:56:47;12.50;99.90
9987;DHT22;5033;46.310;11.214;2023-05-10T06:59:14;12.50;99.90
9987;DHT22;5033;46.310;11.214;2023-05-10T07:01:42;12.50;99.90
9987;DHT22;5033;46.310;11.214;2023-05-10T07:04:09;12.50;99.90
9987;DHT22;5033;46.310;11.214;2023-05-10T07:06:35;12.60;99.90
9987;DHT22;5033;46.310;11.214;2023-05-10T07:09:03;12.60;99.90
9987;DHT22;5033;46.310;11.214;2023-05-10T07:11:31;12.60;99.90
9987;DHT22;5033;46.310;11.214;2023-05-10T07:13:58;12.60;99.90
9987;DHT22;5033;46.310;11.214;2023-05-10T07:16:25;12.50;99.90
9987;DHT22;5033;46.310;11.214;2023-05-10T07:18:52;12.50;99.90
9987;DHT22;5033;46.310;11.214;2023-05-10T07:21:19;12.50;99.90
9987;DHT22;5033;46.310;11.214;2023-05-10T07:23:46;12.50;99.90
9987;DHT22;5033;46.310;11.214;2023-05-10T07:26:13;12.50;99.90
9987;DHT22;5033;46.310;11.214;2023-05-10T07:28:42;12.40;99.90
9987;DHT22;5033;46.310;11.214;2023-05-10T07:31:09;12.40;99.90
9987;DHT22;5033;46.310;11.214;2023-05-10T07:33:36;12.40;99.90
9987;DHT22;5033;46.310;11.214;2023-05-10T07:36:03;12.40;99.90
9987;DHT22;5033;46.310;11.214;2023-05-10T07:38:30;12.50;99.90
9987;DHT22;5033;46.310;11.214;2023-05-10T07:40:57;12.50;99.90
9987;DHT22;5033;46.310;11.214;2023-05-10T07:43:24;12.50;99.90
9987;DHT22;5033;46.310;11.214;2023-05-10T07:45:52;12.60;99.90
9987;DHT22;5033;46.310;11.214;2023-05-10T07:48:19;12.60;99.90
9987;DHT22;5033;46.310;11.214;2023-05-10T07:50:46;12.60;99.90
9987;DHT22;5033;46.310;11.214;2023-05-10T07:53:13;12.60;99.90
9987;DHT22;5033;46.310;11.214;2023-05-10T07:55:40;12.50;99.90
9987;DHT22;5033;46.310;11.214;2023-05-10T07:58:07;12.50;99.90
9987;DHT22;5033;46.310;11.214;2023-05-10T08:00:34;12.50;99.90
9987;DHT22;5033;46.310;11.214;2023-05-10T08:03:02;12.60;99.90
9987;DHT22;5033;46.310;11.214;2023-05-10T08:05:29;12.50;99.90
9987;DHT22;5033;46.310;11.214;2023-05-10T08:07:56;12.50;99.90
9987;DHT22;5033;46.310;11.214;2023-05-10T08:10:24;12.50;99.90
9987;DHT22;5033;46.310;11.214;2023-05-10T08:12:51;12.50;99.90
9987;DHT22;5033;46.310;11.214;2023-05-10T08:15:18;12.50;99.90
9987;DHT22;5033;46.310;11.214;2023-05-10T08:17:45;12.60;99.90
9987;DHT22;5033;46.310;11.214;2023-05-10T08:20:14;12.50;99.90
9987;DHT22;5033;46.310;11.214;2023-05-10T08:22:42;12.50;99.90
9987;DHT22;5033;46.310;11.214;2023-05-10T08:25:09;12.50;99.90
9987;DHT22;5033;46.310;11.214;2023-05-10T08:27:36;12.50;99.90
9987;DHT22;5033;46.310;11.214;2023-05-10T08:30:03;12.40;99.90
9987;DHT22;5033;46.310;11.214;2023-05-10T08:32:30;12.30;99.90
9987;DHT22;5033;46.310;11.214;2023-05-10T08:34:57;12.30;99.90
9987;DHT22;5033;46.310;11.214;2023-05-10T08:37:25;12.20;99.90
9987;DHT22;5033;46.310;11.214;2023-05-10T08:39:52;12.20;99.90
9987;DHT22;5033;46.310;11.214;2023-05-10T08:42:22;12.20;99.90
9987;DHT22;5033;46.310;11.214;2023-05-10T08:44:53;12.30;99.90
9987;DHT22;5033;46.310;11.214;2023-05-10T08:47:20;12.30;99.90
9987;DHT22;5033;46.310;11.214;2023-05-10T08:49:48;12.30;99.90
9987;DHT22;5033;46.310;11.214;2023-05-10T08:52:17;12.30;99.90
9987;DHT22;5033;46.310;11.214;2023-05-10T08:54:47;12.30;99.90
9987;DHT22;5033;46.310;11.214;2023-05-10T08:57:14;12.40;99.90
9987;DHT22;5033;46.310;11.214;2023-05-10T08:59:41;12.40;99.90
9987;DHT22;5033;46.310;11.214;2023-05-10T09:02:10;12.30;99.90
9987;DHT22;5033;46.310;11.214;2023-05-10T09:04:38;12.40;99.90
9987;DHT22;5033;46.310;11.214;2023-05-10T09:07:05;12.50;99.90
9987;DHT22;5033;46.310;11.214;2023-05-10T09:09:33;12.50;99.90
9987;DHT22;5033;46.310;11.214;2023-05-10T09:12:02;12.70;99.90
9987;DHT22;5033;46.310;11.214;2023-05-10T09:14:30;12.70;99.90
9987;DHT22;5033;46.310;11.214;2023-05-10T09:16:57;12.80;99.90
9987;DHT22;5033;46.310;11.214;2023-05-10T09:19:24;12.90;99.90
9987;DHT22;5033;46.310;11.214;2023-05-10T09:21:51;12.90;99.90
9987;DHT22;5033;46.310;11.214;2023-05-10T09:24:18;13.00;99.90
9987;DHT22;5033;46.310;11.214;2023-05-10T09:26:49;13.00;99.90
9987;DHT22;5033;46.310;11.214;2023-05-10T09:29:17;13.00;99.90
9987;DHT22;5033;46.310;11.214;2023-05-10T09:31:45;13.10;99.90
9987;DHT22;5033;46.310;11.214;2023-05-10T09:34:16;13.00;99.90
9987;DHT22;5033;46.310;11.214;2023-05-10T09:36:51;13.00;99.90
9987;DHT22;5033;46.310;11.214;2023-05-10T09:39:18;12.90;99.90
9987;DHT22;5033;46.310;11.214;2023-05-10T09:41:46;12.90;99.90
9987;DHT22;5033;46.310;11.214;2023-05-10T09:44:17;12.90;99.90
9987;DHT22;5033;46.310;11.214;2023-05-10T09:46:49;12.90;99.90
9987;DHT22;5033;46.310;11.214;2023-05-10T09:49:18;12.90;99.90
9987;DHT22;5033;46.310;11.214;2023-05-10T09:51:45;12.90;99.90
9987;DHT22;5033;46.310;11.214;2023-05-10T09:54:13;12.80;99.90
9987;DHT22;5033;46.310;11.214;2023-05-10T09:56:40;12.70;99.90
9987;DHT22;5033;46.310;11.214;2023-05-10T09:59:10;12.70;99.90
9987;DHT22;5033;46.310;11.214;2023-05-10T10:01:38;12.60;99.90
9987;DHT22;5033;46.310;11.214;2023-05-10T10:04:07;12.50;99.90
9987;DHT22;5033;46.310;11.214;2023-05-10T10:06:37;12.50;99.90
9987;DHT22;5033;46.310;11.214;2023-05-10T10:09:04;12.60;99.90
9987;DHT22;5033;46.310;11.214;2023-05-10T10:11:33;12.60;99.90
9987;DHT22;5033;46.310;11.214;2023-05-10T10:14:00;12.70;99.90
9987;DHT22;5033;46.310;11.214;2023-05-10T10:16:29;12.80;99.90
9987;DHT22;5033;46.310;11.214;2023-05-10T10:18:57;13.00;99.90
9987;DHT22;5033;46.310;11.214;2023-05-10T10:21:24;13.00;99.90
9987;DHT22;5033;46.310;11.214;2023-05-10T10:23:51;13.00;99.90
9987;DHT22;5033;46.310;11.214;2023-05-10T10:26:19;13.00;99.90
9987;DHT22;5033;46.310;11.214;2023-05-10T10:28:51;12.90;99.90
9987;DHT22;5033;46.310;11.214;2023-05-10T10:31:26;12.90;99.90
9987;DHT22;5033;46.310;11.214;2023-05-10T10:34:00;12.90;99.90
9987;DHT22;5033;46.310;11.214;2023-05-10T10:36:28;12.80;99.90
9987;DHT22;5033;46.310;11.214;2023-05-10T10:38:59;12.80;99.90
9987;DHT22;5033;46.310;11.214;2023-05-10T10:41:31;12.80;99.90
9987;DHT22;5033;46.310;11.214;2023-05-10T10:44:24;12.80;99.90
9987;DHT22;5033;46.310;11.214;2023-05-10T10:47:04;12.80;99.90
9987;DHT22;5033;46.310;11.214;2023-05-10T10:49:38;12.80;99.90
9987;DHT22;5033;46.310;11.214;2023-05-10T10:52:15;12.90;99.90
9987;DHT22;5033;46.310;11.214;2023-05-10T10:54:49;12.90;99.90
9987;DHT22;5033;46.310;11.214;2023-05-10T10:57:18;13.00;99.90
9987;DHT22;5033;46.310;11.214;2023-05-10T10:59:47;13.10;99.90
9987;DHT22;5033;46.310;11.214;2023-05-10T11:02:33;13.10;99.90
9987;DHT22;5033;46.310;11.214;2023-05-10T11:05:34;13.30;99.90
9987;DHT22;5033;46.310;11.214;2023-05-10T11:08:16;13.40;99.90
9987;DHT22;5033;46.310;11.214;2023-05-10T11:13:38;13.50;99.90
9987;DHT22;5033;46.310;11.214;2023-05-10T11:16:16;13.50;99.90
9987;DHT22;5033;46.310;11.214;2023-05-10T11:18:54;13.60;99.90
9987;DHT22;5033;46.310;11.214;2023-05-10T11:21:22;13.70;99.90
9987;DHT22;5033;46.310;11.214;2023-05-10T11:23:51;13.60;99.90
9987;DHT22;5033;46.310;11.214;2023-05-10T11:26:22;13.60;99.90
9987;DHT22;5033;46.310;11.214;2023-05-10T11:28:52;13.70;99.90
9987;DHT22;5033;46.310;11.214;2023-05-10T11:31:21;13.60;99.90
9987;DHT22;5033;46.310;11.214;2023-05-10T11:33:50;13.60;99.90
9987;DHT22;5033;46.310;11.214;2023-05-10T11:36:18;13.60;99.90
9987;DHT22;5033;46.310;11.214;2023-05-10T11:38:47;13.60;99.90
9987;DHT22;5033;46.310;11.214;2023-05-10T11:41:16;13.60;99.90
9987;DHT22;5033;46.310;11.214;2023-05-10T11:43:45;13.60;99.90
9987;DHT22;5033;46.310;11.214;2023-05-10T11:46:14;13.60;99.90
9987;DHT22;5033;46.310;11.214;2023-05-10T11:48:42;13.70;99.90
9987;DHT22;5033;46.310;11.214;2023-05-10T11:51:10;13.70;99.90
9987;DHT22;5033;46.310;11.214;2023-05-10T11:53:37;13.60;99.90
9987;DHT22;5033;46.310;11.214;2023-05-10T11:56:07;13.60;99.90
9987;DHT22;5033;46.310;11.214;2023-05-10T11:58:36;13.60;99.90
9987;DHT22;5033;46.310;11.214;2023-05-10T12:01:04;13.60;99.90
9987;DHT22;5033;46.310;11.214;2023-05-10T12:03:32;13.60;99.90
9987;DHT22;5033;46.310;11.214;2023-05-10T12:05:59;13.60;99.90
9987;DHT22;5033;46.310;11.214;2023-05-10T12:08:28;13.50;99.90
9987;DHT22;5033;46.310;11.214;2023-05-10T12:11:06;13.60;99.90
9987;DHT22;5033;46.310;11.214;2023-05-10T12:13:37;13.70;99.90
9987;DHT22;5033;46.310;11.214;2023-05-10T12:16:13;13.60;99.90
9987;DHT22;5033;46.310;11.214;2023-05-10T12:18:41;13.60;99.90
9987;DHT22;5033;46.310;11.214;2023-05-10T12:21:10;13.60;99.90
9987;DHT22;5033;46.310;11.214;2023-05-10T12:23:37;13.50;99.90
9987;DHT22;5033;46.310;11.214;2023-05-10T12:26:06;13.50;99.90
9987;DHT22;5033;46.310;11.214;2023-05-10T12:28:33;13.50;99.90
9987;DHT22;5033;46.310;11.214;2023-05-10T12:31:01;13.50;99.90
9987;DHT22;5033;46.310;11.214;2023-05-10T12:33:36;13.40;99.90
9987;DHT22;5033;46.310;11.214;2023-05-10T12:36:05;13.40;99.90
9987;DHT22;5033;46.310;11.214;2023-05-10T12:38:33;13.40;99.90
9987;DHT22;5033;46.310;11.214;2023-05-10T12:41:02;13.30;99.90
9987;DHT22;5033;46.310;11.214;2023-05-10T12:43:31;13.40;99.90
9987;DHT22;5033;46.310;11.214;2023-05-10T12:45:58;13.40;99.90
9987;DHT22;5033;46.310;11.214;2023-05-10T12:48:25;13.50;99.90
9987;DHT22;5033;46.310;11.214;2023-05-10T12:50:54;13.50;99.90
9987;DHT22;5033;46.310;11.214;2023-05-10T12:53:21;13.50;99.90
9987;DHT22;5033;46.310;11.214;2023-05-10T12:55:48;13.50;99.90
9987;DHT22;5033;46.310;11.214;2023-05-10T12:58:14;13.50;99.90
9987;DHT22;5033;46.310;11.214;2023-05-10T13:00:43;13.40;99.90
9987;DHT22;5033;46.310;11.214;2023-05-10T13:03:10;13.50;99.90
9987;DHT22;5033;46.310;11.214;2023-05-10T13:05:37;13.50;99.90
9987;DHT22;5033;46.310;11.214;2023-05-10T13:08:04;13.50;99.90
9987;DHT22;5033;46.310;11.214;2023-05-10T13:10:31;13.50;99.90
9987;DHT22;5033;46.310;11.214;2023-05-10T13:12:58;13.50;99.90
9987;DHT22;5033;46.310;11.214;2023-05-10T13:15:26;13.50;99.90
9987;DHT22;5033;46.310;11.214;2023-05-10T13:17:54;13.50;99.90
9987;DHT22;5033;46.310;11.214;2023-05-10T13:20:21;13.50;99.90
9987;DHT22;5033;46.310;11.214;2023-05-10T13:22:49;13.50;99.90
9987;DHT22;5033;46.310;11.214;2023-05-10T13:25:16;13.50;99.90
9987;DHT22;5033;46.310;11.214;2023-05-10T13:27:43;13.50;99.90
9987;DHT22;5033;46.310;11.214;2023-05-10T13:30:11;13.50;99.90
9987;DHT22;5033;46.310;11.214;2023-05-10T13:32:38;13.40;99.90
9987;DHT22;5033;46.310;11.214;2023-05-10T13:35:07;13.40;99.90
9987;DHT22;5033;46.310;11.214;2023-05-10T13:37:34;13.40;99.90
9987;DHT22;5033;46.310;11.214;2023-05-10T13:40:03;13.40;99.90
9987;DHT22;5033;46.310;11.214;2023-05-10T13:42:30;13.40;99.90
9987;DHT22;5033;46.310;11.214;2023-05-10T13:44:58;13.40;99.90
9987;DHT22;5033;46.310;11.214;2023-05-10T13:47:26;13.40;99.90
9987;DHT22;5033;46.310;11.214;2023-05-10T13:49:53;13.40;99.90
9987;DHT22;5033;46.310;11.214;2023-05-10T13:52:21;13.30;99.90
9987;DHT22;5033;46.310;11.214;2023-05-10T13:54:48;13.20;99.90
9987;DHT22;5033;46.310;11.214;2023-05-10T13:57:15;13.20;99.90
9987;DHT22;5033;46.310;11.214;2023-05-10T13:59:42;13.00;99.90
9987;DHT22;5033;46.310;11.214;2023-05-10T14:02:12;13.00;99.90
9987;DHT22;5033;46.310;11.214;2023-05-10T14:04:39;13.00;99.90
9987;DHT22;5033;46.310;11.214;2023-05-10T14:07:06;13.00;99.90
9987;DHT22;5033;46.310;11.214;2023-05-10T14:09:34;13.00;99.90
9987;DHT22;5033;46.310;11.214;2023-05-10T14:12:01;13.00;99.90
9987;DHT22;5033;46.310;11.214;2023-05-10T14:14:28;13.00;99.90
9987;DHT22;5033;46.310;11.214;2023-05-10T14:16:56;13.10;99.90
9987;DHT22;5033;46.310;11.214;2023-05-10T14:19:23;13.10;99.90
9987;DHT22;5033;46.310;11.214;2023-05-10T14:21:50;13.10;99.90
9987;DHT22;5033;46.310;11.214;2023-05-10T14:24:17;13.10;99.90
9987;DHT22;5033;46.310;11.214;2023-05-10T14:26:45;13.10;99.90
9987;DHT22;5033;46.310;11.214;2023-05-10T14:29:12;13.00;99.90
9987;DHT22;5033;46.310;11.214;2023-05-10T14:31:40;13.00;99.90
9987;DHT22;5033;46.310;11.214;2023-05-10T14:34:07;13.00;99.90
9987;DHT22;5033;46.310;11.214;2023-05-10T14:36:34;13.10;99.90
9987;DHT22;5033;46.310;11.214;2023-05-10T14:39:00;13.10;99.90
9987;DHT22;5033;46.310;11.214;2023-05-10T14:41:28;13.20;99.90
9987;DHT22;5033;46.310;11.214;2023-05-10T14:43:57;13.30;99.90
9987;DHT22;5033;46.310;11.214;2023-05-10T14:46:24;13.30;99.90
9987;DHT22;5033;46.310;11.214;2023-05-10T14:48:51;13.30;99.90
9987;DHT22;5033;46.310;11.214;2023-05-10T14:51:17;13.30;99.90
9987;DHT22;5033;46.310;11.214;2023-05-10T14:53:47;13.30;99.90
9987;DHT22;5033;46.310;11.214;2023-05-10T14:56:14;13.30;99.90
9987;DHT22;5033;46.310;11.214;2023-05-10T14:58:41;13.30;99.90
9987;DHT22;5033;46.310;11.214;2023-05-10T15:01:09;13.20;99.90
9987;DHT22;5033;46.310;11.214;2023-05-10T15:03:36;13.20;99.90
9987;DHT22;5033;46.310;11.214;2023-05-10T15:06:04;13.20;99.90
9987;DHT22;5033;46.310;11.214;2023-05-10T15:08:31;13.20;99.90
9987;DHT22;5033;46.310;11.214;2023-05-10T15:10:57;13.20;99.90
9987;DHT22;5033;46.310;11.214;2023-05-10T15:13:24;13.20;99.90
9987;DHT22;5033;46.310;11.214;2023-05-10T15:15:51;13.10;99.90
9987;DHT22;5033;46.310;11.214;2023-05-10T15:18:20;13.10;99.90
9987;DHT22;5033;46.310;11.214;2023-05-10T15:20:47;13.10;99.90
9987;DHT22;5033;46.310;11.214;2023-05-10T15:23:13;13.10;99.90
9987;DHT22;5033;46.310;11.214;2023-05-10T15:25:40;13.10;99.90
9987;DHT22;5033;46.310;11.214;2023-05-10T15:28:07;13.20;99.90
9987;DHT22;5033;46.310;11.214;2023-05-10T15:30:34;13.10;99.90
9987;DHT22;5033;46.310;11.214;2023-05-10T15:33:01;13.00;99.90
9987;DHT22;5033;46.310;11.214;2023-05-10T15:35:30;13.00;99.90
9987;DHT22;5033;46.310;11.214;2023-05-10T15:37:57;13.00;99.90
9987;DHT22;5033;46.310;11.214;2023-05-10T15:40:24;12.90;99.90
9987;DHT22;5033;46.310;11.214;2023-05-10T15:42:51;12.90;99.90
9987;DHT22;5033;46.310;11.214;2023-05-10T15:45:18;12.90;99.90
9987;DHT22;5033;46.310;11.214;2023-05-10T15:47:45;12.80;99.90
9987;DHT22;5033;46.310;11.214;2023-05-10T15:50:14;12.90;99.90
9987;DHT22;5033;46.310;11.214;2023-05-10T15:52:42;12.90;99.90
9987;DHT22;5033;46.310;11.214;2023-05-10T15:55:09;12.90;99.90
9987;DHT22;5033;46.310;11.214;2023-05-10T15:57:38;12.90;99.90